Maersk Visby — 9V8827 — position and weather

sailwx.info

Track history (hours):
 
Tides and Currents Weather Stations Pressure Air Temp Water Temp Dewpoint Dewpoint Depression Visibility Wind Speed Wind Dir Waves Ship Positions

Maersk Visby

Last reported at 2017-Aug-17 13:19 UTC. Time now 2017-Aug-17 21:32 UTC.
Position N 37°47' W 072°26'.

Length 180 m; draft 10 m.

Type: Ship (hazmat cat A). MMSI: 564979000.

Date/timePositionNaut miles runAvg speedWind from/ knotsBaromVisibWave heightAir tempDewpointWater temp
2017-Aug-17 13:19N 37°47' W 072°26'1710.6
2017-Aug-17 11:45N 37°31' W 072°20'310.6
2017-Aug-17 11:30N 37°29' W 072°19'1110.7
2017-Aug-17 10:28N 37°18' W 072°15'1010.4
2017-Aug-17 09:33N 37°09' W 072°13'110.3
2017-Aug-17 09:30N 37°08' W 072°12'510.3
2017-Aug-17 09:00N 37°03' W 072°10'610.6
2017-Aug-17 08:28N 36°58' W 072°08'810.4
2017-Aug-17 07:45N 36°51' W 072°06'410.5
2017-Aug-17 07:21N 36°47' W 072°05'410.5
2017-Aug-17 06:56N 36°42' W 072°04'510.7
2017-Aug-17 06:30N 36°38' W 072°02'510.9
2017-Aug-17 06:00N 36°32' W 072°01'510.9
2017-Aug-17 05:30N 36°27' W 071°60'510.7
2017-Aug-17 05:00N 36°22' W 071°58'  
Track history (hours):
 
Tides and Currents Weather Stations Pressure Air Temp Water Temp Dewpoint Dewpoint Depression Visibility Wind Speed Wind Dir Waves Ship Positions

Maersk Visby

Last reported at 2017-Aug-17 13:19 UTC. Time now 2017-Aug-17 21:32 UTC.
Position N 37°47' W 072°26'.

Length 180 m; draft 10 m.

Type: Ship (hazmat cat A). MMSI: 564979000.

Date/timePositionNaut miles runAvg speedWind from/ knotsBaromVisibWave heightAir tempDewpointWater temp
2017-Aug-17 13:19N 37°47' W 072°26'1710.6
2017-Aug-17 11:45N 37°31' W 072°20'310.6
2017-Aug-17 11:30N 37°29' W 072°19'1110.7
2017-Aug-17 10:28N 37°18' W 072°15'1010.4
2017-Aug-17 09:33N 37°09' W 072°13'110.3
2017-Aug-17 09:30N 37°08' W 072°12'510.3
2017-Aug-17 09:00N 37°03' W 072°10'610.6
2017-Aug-17 08:28N 36°58' W 072°08'810.4
2017-Aug-17 07:45N 36°51' W 072°06'410.5
2017-Aug-17 07:21N 36°47' W 072°05'410.5
2017-Aug-17 06:56N 36°42' W 072°04'510.7
2017-Aug-17 06:30N 36°38' W 072°02'510.9
2017-Aug-17 06:00N 36°32' W 072°01'510.9
2017-Aug-17 05:30N 36°27' W 071°60'510.7
2017-Aug-17 05:00N 36°22' W 071°58'  

Dump ship's entire track history